createdAt,value
2018-08-20T00:01:37.520Z,101188.58
2018-08-20T00:04:07.894Z,101177.72
2018-08-20T00:06:49.250Z,101181.95
2018-08-20T00:09:18.399Z,101179.23
2018-08-20T00:11:47.367Z,101180.89
2018-08-20T00:14:18.788Z,101183.98
2018-08-20T00:16:47.288Z,101182.03
2018-08-20T00:19:15.726Z,101181.59
2018-08-20T00:21:45.097Z,101173.73
2018-08-20T00:24:13.553Z,101168.56
2018-08-20T00:26:41.949Z,101173.00
2018-08-20T00:29:10.421Z,101159.30
2018-08-20T00:31:38.848Z,101171.27
2018-08-20T00:34:07.287Z,101166.90
2018-08-20T00:36:35.792Z,101178.82
2018-08-20T00:39:06.092Z,101180.73
2018-08-20T00:41:34.492Z,101183.38
2018-08-20T00:44:04.478Z,101184.64
2018-08-20T00:46:32.905Z,101191.14
2018-08-20T00:49:01.519Z,101189.40
2018-08-20T00:51:29.946Z,101182.89
2018-08-20T00:53:58.389Z,101186.75
2018-08-20T00:56:26.756Z,101187.20
2018-08-20T00:58:55.520Z,101185.86
2018-08-20T01:01:23.924Z,101182.77
2018-08-20T01:03:52.432Z,101178.86
2018-08-20T01:06:20.844Z,101178.38
2018-08-20T01:08:49.288Z,101176.14
2018-08-20T01:11:17.702Z,101179.07
2018-08-20T01:13:46.201Z,101169.05
2018-08-20T01:16:14.593Z,101174.63
2018-08-20T01:18:43.049Z,101175.48
2018-08-20T01:21:11.649Z,101178.12
2018-08-20T01:23:40.049Z,101178.12
2018-08-20T01:26:08.549Z,101177.89
2018-08-20T01:28:36.975Z,101176.63
2018-08-20T01:31:05.888Z,101167.11
2018-08-20T01:33:34.339Z,101172.77
2018-08-20T01:36:02.759Z,101166.34
2018-08-20T01:38:31.162Z,101161.17
2018-08-20T01:40:59.662Z,101164.55
2018-08-20T01:43:28.108Z,101164.92
2018-08-20T01:45:56.628Z,101168.86
2018-08-20T01:48:25.053Z,101174.06
2018-08-20T01:50:53.429Z,101171.55
2018-08-20T01:53:21.881Z,101170.33
2018-08-20T01:55:50.299Z,101175.53
2018-08-20T01:58:18.711Z,101173.49
2018-08-20T02:00:47.152Z,101170.92
2018-08-20T02:03:15.616Z,101172.23
2018-08-20T02:05:44.393Z,101168.81
2018-08-20T02:08:12.831Z,101161.94
2018-08-20T02:10:41.313Z,101170.19
2018-08-20T02:13:10.029Z,101158.55
2018-08-20T02:15:39.296Z,101163.39
2018-08-20T02:18:09.789Z,101156.15
2018-08-20T02:20:38.262Z,101156.22
2018-08-20T02:23:06.912Z,101151.02
2018-08-20T02:25:35.480Z,101154.10
2018-08-20T02:28:04.036Z,101146.78
2018-08-20T02:30:32.456Z,101154.22
2018-08-20T02:33:00.862Z,101147.79
2018-08-20T02:35:29.276Z,101149.98
2018-08-20T02:37:57.779Z,101150.84
2018-08-20T02:40:26.279Z,101147.87
2018-08-20T02:42:54.732Z,101147.45
2018-08-20T02:45:23.183Z,101150.12
2018-08-20T02:47:51.644Z,101153.25
2018-08-20T02:50:20.173Z,101152.84
2018-08-20T02:52:48.576Z,101152.98
2018-08-20T02:55:17.032Z,101156.03
2018-08-20T02:57:45.719Z,101151.28
2018-08-20T03:00:14.856Z,101156.14
2018-08-20T03:02:43.314Z,101146.25
2018-08-20T03:05:12.860Z,101148.00
2018-08-20T03:07:41.544Z,101146.66
2018-08-20T03:10:11.742Z,101144.51
2018-08-20T03:12:40.256Z,101144.98
2018-08-20T03:15:09.833Z,101152.41
2018-08-20T03:17:38.204Z,101151.97
2018-08-20T03:20:06.823Z,101143.76
2018-08-20T03:22:35.323Z,101145.91
2018-08-20T03:25:03.828Z,101150.73
2018-08-20T03:27:32.239Z,101127.22
2018-08-20T03:30:00.623Z,101160.35
2018-08-20T03:32:29.043Z,101151.77
2018-08-20T03:34:58.022Z,101165.48
2018-08-20T03:37:26.492Z,101154.19
2018-08-20T03:39:54.934Z,101167.12
2018-08-20T03:42:23.364Z,101160.62
2018-08-20T03:44:51.824Z,101160.28
2018-08-20T03:47:20.230Z,101165.17
2018-08-20T03:49:48.934Z,101162.27
2018-08-20T03:52:17.416Z,101165.34
2018-08-20T03:54:45.848Z,101168.31
2018-08-20T03:57:14.266Z,101170.13
2018-08-20T03:59:42.733Z,101184.35
2018-08-20T04:02:11.196Z,101179.80
2018-08-20T04:04:39.603Z,101180.69
2018-08-20T04:07:08.969Z,101181.98
2018-08-20T04:09:37.390Z,101189.78
2018-08-20T04:12:05.798Z,101188.95
2018-08-20T04:14:34.219Z,101184.11
2018-08-20T04:17:02.652Z,101185.38
2018-08-20T04:19:31.087Z,101186.16
2018-08-20T04:21:59.851Z,101184.89
2018-08-20T04:24:28.310Z,101186.67
2018-08-20T04:26:56.740Z,101182.73
2018-08-20T04:29:25.154Z,101177.92
2018-08-20T04:31:53.562Z,101175.73
2018-08-20T04:34:21.940Z,101173.14
2018-08-20T04:36:51.297Z,101179.63
2018-08-20T04:39:19.832Z,101176.28
2018-08-20T04:41:48.261Z,101177.61
2018-08-20T04:44:16.732Z,101176.34
2018-08-20T04:46:45.147Z,101171.55
2018-08-20T04:49:13.611Z,101175.83
2018-08-20T04:51:42.076Z,101179.77
2018-08-20T04:54:10.493Z,101181.06
2018-08-20T04:56:38.955Z,101184.07
2018-08-20T04:59:07.401Z,101192.75
2018-08-20T05:01:35.831Z,101184.92
2018-08-20T05:04:05.191Z,101190.53
2018-08-20T05:06:33.613Z,101190.50
2018-08-20T05:09:02.002Z,101190.28
2018-08-20T05:11:30.448Z,101180.27
2018-08-20T05:13:58.853Z,101172.89
2018-08-20T05:16:27.223Z,101185.05
2018-08-20T05:18:55.700Z,101185.91
2018-08-20T05:21:24.140Z,101188.89
2018-08-20T05:23:53.125Z,101188.38
2018-08-20T05:26:21.668Z,101183.56
2018-08-20T05:28:50.041Z,101160.06
2018-08-20T05:31:19.545Z,101189.20
2018-08-20T05:33:47.952Z,101190.03
2018-08-20T05:36:16.425Z,101197.00
2018-08-20T05:38:44.821Z,101194.02
2018-08-20T05:41:13.323Z,101198.84
2018-08-20T05:43:41.697Z,101195.77
2018-08-20T05:46:10.097Z,101203.05
2018-08-20T05:48:38.588Z,101199.95
2018-08-20T05:51:07.050Z,101208.98
2018-08-20T05:53:35.485Z,101206.54
2018-08-20T05:56:03.868Z,101205.37
2018-08-20T05:58:32.314Z,101204.92
2018-08-20T06:01:00.772Z,101213.64
2018-08-20T06:03:29.227Z,101218.95
2018-08-20T06:05:57.633Z,101212.81
2018-08-20T06:08:26.064Z,101214.94
2018-08-20T06:10:54.543Z,101212.72
2018-08-20T06:13:23.155Z,101216.58
2018-08-20T06:15:51.568Z,101213.09
2018-08-20T06:18:19.971Z,101215.28
2018-08-20T06:20:48.364Z,101220.45
2018-08-20T06:23:18.684Z,101220.92
2018-08-20T06:25:47.720Z,101222.20
2018-08-20T06:28:16.513Z,101226.16
2018-08-20T06:30:44.934Z,101234.33
2018-08-20T06:33:13.320Z,101232.14
2018-08-20T06:35:41.778Z,101232.62
2018-08-20T06:38:10.207Z,101234.36
2018-08-20T06:40:38.700Z,101235.25
2018-08-20T06:43:07.110Z,101232.27
2018-08-20T06:45:35.532Z,101236.55
2018-08-20T06:48:04.068Z,101234.73
2018-08-20T06:50:32.501Z,101240.32
2018-08-20T06:53:00.915Z,101235.16
2018-08-20T06:55:29.344Z,101248.59
2018-08-20T06:57:57.772Z,101239.94
2018-08-20T07:00:26.328Z,101242.06
2018-08-20T07:02:54.707Z,101246.44
2018-08-20T07:05:23.153Z,101251.72
2018-08-20T07:07:51.571Z,101254.44
2018-08-20T07:10:20.039Z,101254.82
2018-08-20T07:12:48.445Z,101258.25
2018-08-20T07:15:16.860Z,101262.53
2018-08-20T07:17:45.466Z,101268.14
2018-08-20T07:20:15.510Z,101265.56
2018-08-20T07:22:44.208Z,101265.13
2018-08-20T07:25:12.596Z,101269.41
2018-08-20T07:27:41.024Z,101268.52
2018-08-20T07:30:11.082Z,101265.03
2018-08-20T07:32:39.555Z,101267.19
2018-08-20T07:35:08.004Z,101272.42
2018-08-20T07:37:36.438Z,101275.49
2018-08-20T07:40:07.271Z,101277.23
2018-08-20T07:42:35.697Z,101281.58
2018-08-20T07:45:04.181Z,101284.61
2018-08-20T07:47:32.635Z,101284.20
2018-08-20T07:50:01.103Z,101291.17
2018-08-20T07:52:29.500Z,101288.54
2018-08-20T07:54:57.886Z,101294.56
2018-08-20T07:57:26.313Z,101296.34
2018-08-20T07:59:54.739Z,101294.68
2018-08-20T08:02:23.142Z,101292.05
2018-08-20T08:04:51.588Z,101291.11
2018-08-20T08:07:20.104Z,101296.77
2018-08-20T08:09:48.549Z,101297.72
2018-08-20T08:12:17.593Z,101296.86
2018-08-20T08:14:46.032Z,101303.75
2018-08-20T08:17:14.460Z,101305.55
2018-08-20T08:19:42.901Z,101304.71
2018-08-20T08:22:11.861Z,101308.67
2018-08-20T08:24:40.238Z,101304.71
2018-08-20T08:27:08.780Z,101310.46
2018-08-20T08:29:37.412Z,101309.14
2018-08-20T08:32:05.938Z,101309.50
2018-08-20T08:34:34.463Z,101309.38
2018-08-20T08:37:03.075Z,101311.54
2018-08-20T08:39:31.516Z,101314.61
2018-08-20T08:41:59.985Z,101312.89
2018-08-20T08:44:28.364Z,101315.49
2018-08-20T08:46:56.821Z,101317.15
2018-08-20T08:49:25.309Z,101313.36
2018-08-20T08:51:53.776Z,101314.61
2018-08-20T08:54:22.219Z,101315.49
2018-08-20T08:56:50.663Z,101324.20
2018-08-20T08:59:19.204Z,101318.98
2018-08-20T09:01:47.703Z,101321.87
2018-08-20T09:04:16.143Z,101322.41
2018-08-20T09:06:44.574Z,101322.88
2018-08-20T09:09:12.962Z,101322.78
2018-08-20T09:11:41.413Z,101324.17
2018-08-20T09:14:09.880Z,101325.41
2018-08-20T09:16:38.349Z,101324.53
2018-08-20T09:19:07.413Z,101325.75
2018-08-20T09:21:35.964Z,101324.36
2018-08-20T09:24:04.474Z,101324.39
2018-08-20T09:26:33.109Z,101327.88
2018-08-20T09:29:01.480Z,101328.23
2018-08-20T09:31:29.958Z,101329.17
2018-08-20T09:33:58.425Z,101330.47
2018-08-20T09:36:26.855Z,101334.73
2018-08-20T09:38:55.281Z,101333.90
2018-08-20T09:41:23.717Z,101330.50
2018-08-20T09:43:52.271Z,101333.13
2018-08-20T09:46:20.634Z,101328.84
2018-08-20T09:48:49.081Z,101339.20
2018-08-20T09:51:17.520Z,101335.36
2018-08-20T09:53:45.954Z,101340.98
2018-08-20T09:56:14.454Z,101341.36
2018-08-20T09:58:42.965Z,101339.29
2018-08-20T10:01:11.439Z,101341.89
2018-08-20T10:03:43.993Z,101336.28
2018-08-20T10:06:12.880Z,101337.91
2018-08-20T10:08:41.354Z,101333.54
2018-08-20T10:11:10.346Z,101334.86
2018-08-20T10:13:38.812Z,101333.56
2018-08-20T10:16:07.459Z,101332.69
2018-08-20T10:18:36.020Z,101340.04
2018-08-20T10:21:04.408Z,101340.84
2018-08-20T10:23:32.870Z,101332.89
2018-08-20T10:26:01.360Z,101337.18
2018-08-20T10:28:29.760Z,101333.70
2018-08-20T10:30:58.224Z,101336.21
2018-08-20T10:33:26.744Z,101339.64
2018-08-20T10:35:55.201Z,101344.84
2018-08-20T10:38:23.661Z,101346.64
2018-08-20T10:40:52.145Z,101344.87
2018-08-20T10:43:20.579Z,101349.59
2018-08-20T10:45:54.428Z,101344.84
2018-08-20T10:48:22.924Z,101346.97
2018-08-20T10:50:51.416Z,101343.42
2018-08-20T10:53:19.764Z,101345.13
2018-08-20T10:55:48.236Z,101339.02
2018-08-20T10:58:16.743Z,101342.31
2018-08-20T11:00:45.154Z,101340.39
2018-08-20T11:03:13.788Z,101342.55
2018-08-20T11:05:42.265Z,101294.50
2018-08-20T11:08:10.761Z,101346.67
2018-08-20T11:10:39.279Z,101343.52
2018-08-20T11:13:07.723Z,101348.59
2018-08-20T11:15:36.104Z,101346.34
2018-08-20T11:18:04.622Z,101349.31
2018-08-20T11:20:33.044Z,101342.20
2018-08-20T11:23:01.462Z,101339.75
2018-08-20T11:25:29.871Z,101339.61
2018-08-20T11:27:58.281Z,101333.81
2018-08-20T11:30:26.777Z,101338.98
2018-08-20T11:32:55.224Z,101331.44
2018-08-20T11:35:23.649Z,101337.83
2018-08-20T11:37:52.102Z,101335.63
2018-08-20T11:40:20.565Z,101333.44
2018-08-20T11:42:49.059Z,101327.59
2018-08-20T11:45:17.501Z,101317.83
2018-08-20T11:47:45.929Z,101316.74
2018-08-20T11:50:14.361Z,101317.59
2018-08-20T11:52:42.770Z,101313.03
2018-08-20T11:55:11.175Z,101317.91
2018-08-20T11:57:39.604Z,101315.85
2018-08-20T12:00:09.554Z,101313.70
2018-08-20T12:02:38.068Z,101302.03
2018-08-20T12:05:07.612Z,101302.11
2018-08-20T12:07:36.165Z,101308.39
2018-08-20T12:10:04.821Z,101308.16
2018-08-20T12:12:33.829Z,101309.83
2018-08-20T12:15:02.229Z,101312.13
2018-08-20T12:17:30.647Z,101306.77
2018-08-20T12:19:59.021Z,101314.59
2018-08-20T12:22:27.438Z,101311.55
2018-08-20T12:24:55.776Z,101316.31
2018-08-20T12:27:24.191Z,101307.04
2018-08-20T12:29:53.477Z,101305.88
2018-08-20T12:32:21.980Z,101305.97
2018-08-20T12:34:50.392Z,101312.09
2018-08-20T12:37:18.786Z,101307.09
2018-08-20T12:39:47.284Z,101304.31
2018-08-20T12:42:15.643Z,101306.59
2018-08-20T12:44:44.041Z,101301.59
2018-08-20T12:47:12.536Z,101303.24
2018-08-20T12:49:41.013Z,101304.09
2018-08-20T12:52:09.805Z,101302.28
2018-08-20T12:54:38.273Z,101298.89
2018-08-20T12:57:06.780Z,101297.52
2018-08-20T12:59:35.183Z,101300.58
2018-08-20T13:02:03.636Z,101307.27
2018-08-20T13:04:32.073Z,101306.09
2018-08-20T13:07:00.548Z,101300.69
2018-08-20T13:09:28.936Z,101304.20
2018-08-20T13:11:57.345Z,101296.88
2018-08-20T13:14:25.767Z,101298.13
2018-08-20T13:16:54.187Z,101301.95
2018-08-20T13:19:23.376Z,101299.34
2018-08-20T13:21:51.823Z,101294.22
2018-08-20T13:24:20.271Z,101294.80
2018-08-20T13:26:48.715Z,101288.06
2018-08-20T13:29:17.185Z,101299.50
2018-08-20T13:31:45.562Z,101302.78
2018-08-20T13:34:14.001Z,101308.48
2018-08-20T13:36:42.467Z,101310.95
2018-08-20T13:39:10.948Z,101309.20
2018-08-20T13:41:39.411Z,101306.89
2018-08-20T13:44:07.970Z,101303.06
2018-08-20T13:46:36.396Z,101304.56
2018-08-20T13:49:04.868Z,101312.94
2018-08-20T13:51:33.300Z,101311.86
2018-08-20T13:54:01.713Z,101308.41
2018-08-20T13:56:30.134Z,101309.27
2018-08-20T13:58:58.588Z,101309.27
2018-08-20T14:01:27.042Z,101302.92
2018-08-20T14:03:55.972Z,101303.70
2018-08-20T14:06:24.448Z,101302.24
2018-08-20T14:08:52.928Z,101304.16
2018-08-20T14:11:21.405Z,101301.10
2018-08-20T14:13:49.819Z,101289.95
2018-08-20T14:16:18.241Z,101298.99
2018-08-20T14:18:46.671Z,101296.70
2018-08-20T14:21:16.750Z,101297.23
2018-08-20T14:23:46.698Z,101301.37
2018-08-20T14:26:15.227Z,101305.81
2018-08-20T14:28:43.770Z,101302.31
2018-08-20T14:31:12.295Z,101301.37
2018-08-20T14:33:40.739Z,101307.48
2018-08-20T14:36:09.828Z,101298.86
2018-08-20T14:38:38.309Z,101302.72
2018-08-20T14:41:06.952Z,101308.42
2018-08-20T14:43:35.456Z,101304.11
2018-08-20T14:46:09.119Z,101299.71
2018-08-20T14:48:37.571Z,101306.67
2018-08-20T14:51:06.116Z,101304.96
2018-08-20T14:53:34.648Z,101302.00
2018-08-20T14:56:03.047Z,101303.34
2018-08-20T14:58:31.474Z,101294.71
2018-08-20T15:00:59.970Z,101294.30
2018-08-20T15:03:28.987Z,101291.30
2018-08-20T15:05:57.361Z,101301.27
2018-08-20T15:08:25.796Z,101297.73
2018-08-20T15:10:54.283Z,101298.22
2018-08-20T15:13:22.753Z,101298.22
2018-08-20T15:15:51.212Z,101294.30
2018-08-20T15:18:19.651Z,101300.00
2018-08-20T15:20:48.128Z,101303.91
2018-08-20T15:23:16.523Z,101295.69
2018-08-20T15:25:44.993Z,101294.39
2018-08-20T15:28:13.386Z,101298.70
2018-08-20T15:30:41.860Z,101290.44
2018-08-20T15:33:10.299Z,101295.20
2018-08-20T15:35:38.749Z,101295.97
2018-08-20T15:38:07.316Z,101291.17
2018-08-20T15:40:35.761Z,101288.97
2018-08-20T15:43:04.160Z,101288.88
2018-08-20T15:45:32.590Z,101288.34
2018-08-20T15:48:01.046Z,101290.45
2018-08-20T15:50:29.478Z,101286.45
2018-08-20T15:52:57.970Z,101285.52
2018-08-20T15:55:26.317Z,101281.19
2018-08-20T15:57:54.769Z,101285.06
2018-08-20T16:00:23.212Z,101284.56
2018-08-20T16:02:51.673Z,101287.13
2018-08-20T16:05:20.123Z,101281.92
2018-08-20T16:07:48.583Z,101284.13
2018-08-20T16:10:16.989Z,101281.52
2018-08-20T16:12:45.424Z,101286.73
2018-08-20T16:15:13.853Z,101282.86
2018-08-20T16:17:42.276Z,101285.88
2018-08-20T16:20:10.768Z,101275.00
2018-08-20T16:22:39.216Z,101280.21
2018-08-20T16:25:08.274Z,101275.85
2018-08-20T16:27:36.691Z,101276.70
2018-08-20T16:30:08.087Z,101269.38
2018-08-20T16:32:36.678Z,101269.42
2018-08-20T16:35:05.300Z,101270.77
2018-08-20T16:37:33.763Z,101272.53
2018-08-20T16:40:02.227Z,101274.77
2018-08-20T16:42:30.717Z,101270.91
2018-08-20T16:44:59.402Z,101270.54
2018-08-20T16:47:27.870Z,101264.03
2018-08-20T16:49:56.910Z,101269.70
2018-08-20T16:52:25.384Z,101266.73
2018-08-20T16:54:53.871Z,101268.07
2018-08-20T16:57:22.264Z,101265.95
2018-08-20T16:59:50.738Z,101269.02
2018-08-20T17:02:25.181Z,101262.50
2018-08-20T17:04:53.841Z,101262.55
2018-08-20T17:09:49.703Z,101261.24
2018-08-20T17:12:18.148Z,101264.70
2018-08-20T17:14:46.597Z,101264.25
2018-08-20T17:17:15.056Z,101264.34
2018-08-20T17:19:45.154Z,101260.42
2018-08-20T17:22:13.698Z,101261.81
2018-08-20T17:24:42.240Z,101260.11
2018-08-20T17:27:11.387Z,101263.61
2018-08-20T17:29:39.811Z,101265.80
2018-08-20T17:32:09.490Z,101263.69
2018-08-20T17:34:40.338Z,101261.13
2018-08-20T17:37:08.904Z,101263.77
2018-08-20T17:39:51.441Z,101270.28
2018-08-20T17:42:19.953Z,101270.70
2018-08-20T17:44:48.998Z,101270.70
2018-08-20T17:47:22.712Z,101274.65
2018-08-20T17:49:52.098Z,101273.84
2018-08-20T17:52:21.324Z,101268.17
2018-08-20T17:54:49.829Z,101272.94
2018-08-20T17:57:18.316Z,101271.67
2018-08-20T17:59:46.891Z,101269.11
2018-08-20T18:02:22.650Z,101266.91
2018-08-20T18:04:51.483Z,101270.86
2018-08-20T18:07:19.894Z,101273.42
2018-08-20T18:09:48.337Z,101268.75
2018-08-20T18:12:16.822Z,101273.18
2018-08-20T18:14:47.802Z,101273.18
2018-08-20T18:17:16.799Z,101274.08
2018-08-20T18:19:45.162Z,101274.03
2018-08-20T18:22:13.621Z,101281.85
2018-08-20T18:24:42.252Z,101284.05
2018-08-20T18:27:11.405Z,101286.73
2018-08-20T18:29:39.879Z,101287.18
2018-08-20T18:32:09.083Z,101290.69
2018-08-20T18:34:37.570Z,101292.92
2018-08-20T18:37:06.048Z,101292.10
2018-08-20T18:39:34.521Z,101295.64
2018-08-20T18:42:04.823Z,101301.74
2018-08-20T18:44:33.394Z,101303.08
2018-08-20T18:47:01.925Z,101305.28
2018-08-20T18:49:30.462Z,101311.86
2018-08-20T18:52:05.137Z,101311.91
2018-08-20T18:54:38.207Z,101309.71
2018-08-20T18:57:07.053Z,101314.95
2018-08-20T18:59:37.233Z,101318.01
2018-08-20T19:02:06.230Z,101320.65
2018-08-20T19:04:47.842Z,101324.14
2018-08-20T19:07:16.736Z,101329.42
2018-08-20T19:09:48.357Z,101330.77
2018-08-20T19:12:16.899Z,101336.86
2018-08-20T19:14:45.373Z,101335.63
2018-08-20T19:17:19.327Z,101330.46
2018-08-20T19:19:48.883Z,101333.10
2018-08-20T19:22:22.678Z,101326.59
2018-08-20T19:24:51.157Z,101322.31
2018-08-20T19:27:19.693Z,101329.65
2018-08-20T19:29:48.185Z,101324.03
2018-08-20T19:32:16.685Z,101327.94
2018-08-20T19:34:45.173Z,101335.34
2018-08-20T19:37:13.582Z,101331.02
2018-08-20T19:39:42.052Z,101332.80
2018-08-20T19:42:14.106Z,101331.09
2018-08-20T19:44:43.033Z,101328.48
2018-08-20T19:49:53.692Z,101332.91
2018-08-20T19:52:22.130Z,101329.00
2018-08-20T19:54:54.744Z,101335.14
2018-08-20T19:57:23.192Z,101332.98
2018-08-20T19:59:52.499Z,101332.98
2018-08-20T20:02:21.011Z,101330.45
2018-08-20T20:04:49.437Z,101331.78
2018-08-20T20:07:17.900Z,101329.59
2018-08-20T20:09:46.294Z,101339.11
2018-08-20T20:12:14.749Z,101341.75
2018-08-20T20:14:47.212Z,101342.27
2018-08-20T20:17:15.691Z,101347.12
2018-08-20T20:19:44.288Z,101344.08
2018-08-20T20:22:14.692Z,101351.85
2018-08-20T20:24:43.131Z,101348.84
2018-08-20T20:27:11.612Z,101348.84
2018-08-20T20:29:40.145Z,101349.70
2018-08-20T20:32:08.656Z,101350.58
2018-08-20T20:34:37.185Z,101355.75
2018-08-20T20:37:05.662Z,101350.55
2018-08-20T20:39:34.102Z,101353.15
2018-08-20T20:42:02.580Z,101335.17
2018-08-20T20:44:31.029Z,101352.27
2018-08-20T20:46:59.470Z,101352.81
2018-08-20T20:49:27.843Z,101353.32
2018-08-20T20:51:56.239Z,101355.54
2018-08-20T20:54:24.672Z,101354.27
2018-08-20T20:56:53.094Z,101354.27
2018-08-20T20:59:21.568Z,101356.05
2018-08-20T21:01:50.156Z,101356.94
2018-08-20T21:04:18.611Z,101358.24
2018-08-20T21:06:47.925Z,101356.98
2018-08-20T21:09:16.573Z,101361.73
2018-08-20T21:11:44.998Z,101362.24
2018-08-20T21:14:13.607Z,101359.67
2018-08-20T21:16:41.936Z,101357.52
2018-08-20T21:19:10.440Z,101360.12
2018-08-20T21:21:38.901Z,101366.62
2018-08-20T21:24:08.047Z,101369.34
2018-08-20T21:26:36.517Z,101367.31
2018-08-20T21:29:04.989Z,101373.78
2018-08-20T21:31:43.272Z,101369.41
2018-08-20T21:34:11.742Z,101367.66
2018-08-20T21:36:40.188Z,101372.01
2018-08-20T21:39:09.720Z,101372.87
2018-08-20T21:41:38.176Z,101378.10
2018-08-20T21:44:06.780Z,101375.91
2018-08-20T21:46:35.192Z,101376.83
2018-08-20T21:49:03.658Z,101379.45
2018-08-20T21:51:37.392Z,101382.51
2018-08-20T21:54:05.850Z,101374.26
2018-08-20T21:56:45.486Z,101381.59
2018-08-20T21:59:13.916Z,101375.53
2018-08-20T22:01:42.376Z,101380.34
2018-08-20T22:04:16.041Z,101383.80
2018-08-20T22:06:44.471Z,101379.08
2018-08-20T22:09:12.876Z,101379.52
2018-08-20T22:11:41.492Z,101379.14
2018-08-20T22:14:09.964Z,101380.88
2018-08-20T22:16:38.397Z,101381.32
2018-08-20T22:19:06.848Z,101380.91
2018-08-20T22:21:35.252Z,101380.08
2018-08-20T22:24:04.230Z,101379.26
2018-08-20T22:26:33.232Z,101383.69
2018-08-20T22:29:01.687Z,101379.37
2018-08-20T22:31:30.136Z,101378.16
2018-08-20T22:34:03.731Z,101376.45
2018-08-20T22:36:32.759Z,101377.75
2018-08-20T22:39:02.381Z,101378.10
2018-08-20T22:41:31.677Z,101372.84
2018-08-20T22:44:00.094Z,101370.69
2018-08-20T22:46:28.518Z,101377.19
2018-08-20T22:48:58.327Z,101376.80
2018-08-20T22:51:28.074Z,101374.23
2018-08-20T22:54:00.297Z,101370.80
2018-08-20T22:56:31.057Z,101374.73
2018-08-20T22:59:10.181Z,101371.30
2018-08-20T23:01:38.649Z,101377.80
2018-08-20T23:04:07.519Z,101371.74
2018-08-20T23:06:35.937Z,101376.11
2018-08-20T23:09:20.788Z,101377.39
2018-08-20T23:11:49.313Z,101382.14
2018-08-20T23:14:17.761Z,101384.38
2018-08-20T23:16:49.413Z,101388.72
2018-08-20T23:19:17.908Z,101390.52
2018-08-20T23:21:47.357Z,101386.59
2018-08-20T23:24:17.342Z,101392.23
2018-08-20T23:26:45.780Z,101393.97
2018-08-20T23:29:18.364Z,101388.36
2018-08-20T23:31:46.793Z,101390.02
2018-08-20T23:34:16.201Z,101389.13
2018-08-20T23:36:44.628Z,101390.44
2018-08-20T23:39:14.312Z,101387.53
2018-08-20T23:41:42.792Z,101392.78
2018-08-20T23:44:11.352Z,101392.01
2018-08-20T23:46:41.405Z,101395.05
2018-08-20T23:49:09.841Z,101388.16
2018-08-20T23:51:38.384Z,101386.80
2018-08-20T23:54:06.861Z,101378.65
2018-08-20T23:56:35.321Z,101398.50
2018-08-20T23:59:03.839Z,101389.87
